sensor_id;sensor_type;location;lat;lon;timestamp;temperature;humidity
39751;DHT22;37579;51.074;17.004;2024-02-26T00:01:42;25.00;83.30
39751;DHT22;37579;51.074;17.004;2024-02-26T00:04:11;25.00;83.40
39751;DHT22;37579;51.074;17.004;2024-02-26T00:06:38;25.00;83.50
39751;DHT22;37579;51.074;17.004;2024-02-26T00:09:10;25.00;83.40
39751;DHT22;37579;51.074;17.004;2024-02-26T00:11:36;25.00;83.40
39751;DHT22;37579;51.074;17.004;2024-02-26T00:14:03;25.00;83.40
39751;DHT22;37579;51.074;17.004;2024-02-26T00:16:29;24.90;83.40
39751;DHT22;37579;51.074;17.004;2024-02-26T00:18:55;24.90;83.50
39751;DHT22;37579;51.074;17.004;2024-02-26T00:21:20;24.90;83.40
39751;DHT22;37579;51.074;17.004;2024-02-26T00:23:46;24.90;83.50
39751;DHT22;37579;51.074;17.004;2024-02-26T00:26:12;24.90;83.50
39751;DHT22;37579;51.074;17.004;2024-02-26T00:28:38;24.90;83.60
39751;DHT22;37579;51.074;17.004;2024-02-26T00:31:04;24.90;83.70
39751;DHT22;37579;51.074;17.004;2024-02-26T00:33:30;24.80;83.70
39751;DHT22;37579;51.074;17.004;2024-02-26T00:35:56;24.90;83.80
39751;DHT22;37579;51.074;17.004;2024-02-26T00:38:22;24.80;83.80
39751;DHT22;37579;51.074;17.004;2024-02-26T00:40:48;24.80;83.90
39751;DHT22;37579;51.074;17.004;2024-02-26T00:43:13;24.80;84.00
39751;DHT22;37579;51.074;17.004;2024-02-26T00:45:39;24.80;84.00
39751;DHT22;37579;51.074;17.004;2024-02-26T00:48:05;24.80;84.20
39751;DHT22;37579;51.074;17.004;2024-02-26T00:50:31;24.80;84.20
39751;DHT22;37579;51.074;17.004;2024-02-26T00:52:57;24.80;84.20
39751;DHT22;37579;51.074;17.004;2024-02-26T00:55:23;24.90;84.80
39751;DHT22;37579;51.074;17.004;2024-02-26T00:57:49;24.90;84.80
39751;DHT22;37579;51.074;17.004;2024-02-26T01:00:15;25.00;84.70
39751;DHT22;37579;51.074;17.004;2024-02-26T01:02:41;25.00;84.50
39751;DHT22;37579;51.074;17.004;2024-02-26T01:05:12;25.00;84.60
39751;DHT22;37579;51.074;17.004;2024-02-26T01:07:38;25.00;84.60
39751;DHT22;37579;51.074;17.004;2024-02-26T01:10:06;25.00;84.60
39751;DHT22;37579;51.074;17.004;2024-02-26T01:12:35;25.00;84.60
39751;DHT22;37579;51.074;17.004;2024-02-26T01:15:02;25.00;84.50
39751;DHT22;37579;51.074;17.004;2024-02-26T01:17:28;25.00;84.40
39751;DHT22;37579;51.074;17.004;2024-02-26T01:19:54;25.00;84.40
39751;DHT22;37579;51.074;17.004;2024-02-26T01:22:20;25.00;84.50
39751;DHT22;37579;51.074;17.004;2024-02-26T01:24:46;25.00;84.70
39751;DHT22;37579;51.074;17.004;2024-02-26T01:27:12;25.00;84.50
39751;DHT22;37579;51.074;17.004;2024-02-26T01:29:39;25.00;84.50
39751;DHT22;37579;51.074;17.004;2024-02-26T01:32:05;25.00;84.40
39751;DHT22;37579;51.074;17.004;2024-02-26T01:34:31;24.90;84.40
39751;DHT22;37579;51.074;17.004;2024-02-26T01:36:57;25.00;84.40
39751;DHT22;37579;51.074;17.004;2024-02-26T01:39:23;25.00;84.40
39751;DHT22;37579;51.074;17.004;2024-02-26T01:41:49;25.00;84.30
39751;DHT22;37579;51.074;17.004;2024-02-26T01:44:15;25.00;84.20
39751;DHT22;37579;51.074;17.004;2024-02-26T01:46:41;25.00;84.30
39751;DHT22;37579;51.074;17.004;2024-02-26T01:49:08;25.00;84.20
39751;DHT22;37579;51.074;17.004;2024-02-26T01:51:38;25.00;84.30
39751;DHT22;37579;51.074;17.004;2024-02-26T01:54:06;25.00;84.10
39751;DHT22;37579;51.074;17.004;2024-02-26T01:56:34;25.00;84.20
39751;DHT22;37579;51.074;17.004;2024-02-26T01:59:01;25.00;84.20
39751;DHT22;37579;51.074;17.004;2024-02-26T02:01:29;25.00;84.40
39751;DHT22;37579;51.074;17.004;2024-02-26T02:03:59;25.00;84.30
39751;DHT22;37579;51.074;17.004;2024-02-26T02:06:26;25.00;84.30
39751;DHT22;37579;51.074;17.004;2024-02-26T02:08:54;24.90;84.40
39751;DHT22;37579;51.074;17.004;2024-02-26T02:11:21;24.90;84.30
39751;DHT22;37579;51.074;17.004;2024-02-26T02:13:47;24.90;84.30
39751;DHT22;37579;51.074;17.004;2024-02-26T02:16:13;24.90;84.30
39751;DHT22;37579;51.074;17.004;2024-02-26T02:18:39;24.90;84.30
39751;DHT22;37579;51.074;17.004;2024-02-26T02:21:05;25.00;84.20
39751;DHT22;37579;51.074;17.004;2024-02-26T02:23:31;24.90;84.30
39751;DHT22;37579;51.074;17.004;2024-02-26T02:25:57;24.80;84.30
39751;DHT22;37579;51.074;17.004;2024-02-26T02:28:25;24.80;84.40
39751;DHT22;37579;51.074;17.004;2024-02-26T02:30:51;24.80;84.70
39751;DHT22;37579;51.074;17.004;2024-02-26T02:33:17;24.80;84.60
39751;DHT22;37579;51.074;17.004;2024-02-26T02:35:43;24.80;84.60
39751;DHT22;37579;51.074;17.004;2024-02-26T02:38:08;24.80;84.50
39751;DHT22;37579;51.074;17.004;2024-02-26T02:40:34;24.80;84.50
39751;DHT22;37579;51.074;17.004;2024-02-26T02:43:00;24.80;84.60
39751;DHT22;37579;51.074;17.004;2024-02-26T02:45:28;24.80;84.50
39751;DHT22;37579;51.074;17.004;2024-02-26T02:47:54;24.80;84.60
39751;DHT22;37579;51.074;17.004;2024-02-26T02:50:20;24.80;84.60
39751;DHT22;37579;51.074;17.004;2024-02-26T02:52:46;24.80;84.70
39751;DHT22;37579;51.074;17.004;2024-02-26T02:55:12;24.80;84.60
39751;DHT22;37579;51.074;17.004;2024-02-26T02:57:38;24.80;84.40
39751;DHT22;37579;51.074;17.004;2024-02-26T03:00:10;24.80;84.50
39751;DHT22;37579;51.074;17.004;2024-02-26T03:02:36;24.80;84.50
39751;DHT22;37579;51.074;17.004;2024-02-26T03:05:03;24.80;84.50
39751;DHT22;37579;51.074;17.004;2024-02-26T03:07:29;24.80;84.50
39751;DHT22;37579;51.074;17.004;2024-02-26T03:09:58;24.80;84.40
39751;DHT22;37579;51.074;17.004;2024-02-26T03:12:24;24.80;84.50
39751;DHT22;37579;51.074;17.004;2024-02-26T03:14:49;24.80;84.40
39751;DHT22;37579;51.074;17.004;2024-02-26T03:17:15;24.80;84.50
39751;DHT22;37579;51.074;17.004;2024-02-26T03:19:41;24.80;84.50
39751;DHT22;37579;51.074;17.004;2024-02-26T03:22:07;24.80;84.50
39751;DHT22;37579;51.074;17.004;2024-02-26T03:24:33;24.80;84.30
39751;DHT22;37579;51.074;17.004;2024-02-26T03:26:59;24.80;84.20
39751;DHT22;37579;51.074;17.004;2024-02-26T03:29:25;24.80;84.20
39751;DHT22;37579;51.074;17.004;2024-02-26T03:31:50;24.90;84.20
39751;DHT22;37579;51.074;17.004;2024-02-26T03:34:16;24.80;84.20
39751;DHT22;37579;51.074;17.004;2024-02-26T03:36:44;24.90;84.10
39751;DHT22;37579;51.074;17.004;2024-02-26T03:39:10;24.80;84.10
39751;DHT22;37579;51.074;17.004;2024-02-26T03:41:36;24.80;84.00
39751;DHT22;37579;51.074;17.004;2024-02-26T03:44:02;24.80;84.20
39751;DHT22;37579;51.074;17.004;2024-02-26T03:46:28;24.80;84.00
39751;DHT22;37579;51.074;17.004;2024-02-26T03:48:54;24.80;84.10
39751;DHT22;37579;51.074;17.004;2024-02-26T03:51:20;24.80;84.10
39751;DHT22;37579;51.074;17.004;2024-02-26T03:53:46;24.80;84.00
39751;DHT22;37579;51.074;17.004;2024-02-26T03:56:12;24.80;84.00
39751;DHT22;37579;51.074;17.004;2024-02-26T03:58:39;24.80;84.00
39751;DHT22;37579;51.074;17.004;2024-02-26T04:01:07;24.70;83.90
39751;DHT22;37579;51.074;17.004;2024-02-26T04:03:33;24.70;83.90
39751;DHT22;37579;51.074;17.004;2024-02-26T04:06:00;24.70;84.00
39751;DHT22;37579;51.074;17.004;2024-02-26T04:08:25;24.70;84.00
39751;DHT22;37579;51.074;17.004;2024-02-26T04:10:51;24.70;84.00
39751;DHT22;37579;51.074;17.004;2024-02-26T04:13:17;24.70;84.10
39751;DHT22;37579;51.074;17.004;2024-02-26T04:15:43;24.70;84.10
39751;DHT22;37579;51.074;17.004;2024-02-26T04:18:09;24.70;83.90
39751;DHT22;37579;51.074;17.004;2024-02-26T04:20:35;24.80;84.00
39751;DHT22;37579;51.074;17.004;2024-02-26T04:23:01;24.70;83.90
39751;DHT22;37579;51.074;17.004;2024-02-26T04:25:26;24.70;83.90
39751;DHT22;37579;51.074;17.004;2024-02-26T04:27:54;24.70;84.00
39751;DHT22;37579;51.074;17.004;2024-02-26T04:30:20;24.60;84.00
39751;DHT22;37579;51.074;17.004;2024-02-26T04:32:45;24.60;84.10
39751;DHT22;37579;51.074;17.004;2024-02-26T04:35:11;24.60;84.10
39751;DHT22;37579;51.074;17.004;2024-02-26T04:37:37;24.60;84.20
39751;DHT22;37579;51.074;17.004;2024-02-26T04:40:03;24.60;84.30
39751;DHT22;37579;51.074;17.004;2024-02-26T04:42:29;24.60;84.20
39751;DHT22;37579;51.074;17.004;2024-02-26T04:44:55;24.50;84.20
39751;DHT22;37579;51.074;17.004;2024-02-26T04:47:22;24.50;84.40
39751;DHT22;37579;51.074;17.004;2024-02-26T04:49:51;24.50;84.40
39751;DHT22;37579;51.074;17.004;2024-02-26T04:52:18;24.50;84.40
39751;DHT22;37579;51.074;17.004;2024-02-26T04:54:44;24.50;84.30
39751;DHT22;37579;51.074;17.004;2024-02-26T04:57:10;24.50;84.50
39751;DHT22;37579;51.074;17.004;2024-02-26T04:59:36;24.60;84.30
39751;DHT22;37579;51.074;17.004;2024-02-26T05:02:01;24.60;84.30
39751;DHT22;37579;51.074;17.004;2024-02-26T05:04:27;24.60;84.80
39751;DHT22;37579;51.074;17.004;2024-02-26T05:06:53;24.60;84.30
39751;DHT22;37579;51.074;17.004;2024-02-26T05:09:19;24.60;84.20
39751;DHT22;37579;51.074;17.004;2024-02-26T05:11:45;24.60;84.40
39751;DHT22;37579;51.074;17.004;2024-02-26T05:14:11;24.60;84.50
39751;DHT22;37579;51.074;17.004;2024-02-26T05:16:37;24.60;84.70
39751;DHT22;37579;51.074;17.004;2024-02-26T05:19:02;24.60;84.70
39751;DHT22;37579;51.074;17.004;2024-02-26T05:21:29;24.60;84.70
39751;DHT22;37579;51.074;17.004;2024-02-26T05:23:54;24.60;84.70
39751;DHT22;37579;51.074;17.004;2024-02-26T05:26:23;24.70;84.70
39751;DHT22;37579;51.074;17.004;2024-02-26T05:28:49;24.70;84.60
39751;DHT22;37579;51.074;17.004;2024-02-26T05:31:16;24.70;84.60
39751;DHT22;37579;51.074;17.004;2024-02-26T05:33:43;24.70;84.70
39751;DHT22;37579;51.074;17.004;2024-02-26T05:36:09;24.60;84.60
39751;DHT22;37579;51.074;17.004;2024-02-26T05:38:35;24.70;84.70
39751;DHT22;37579;51.074;17.004;2024-02-26T05:41:01;24.80;84.90
39751;DHT22;37579;51.074;17.004;2024-02-26T05:43:27;24.80;84.80
39751;DHT22;37579;51.074;17.004;2024-02-26T05:45:53;24.80;84.80
39751;DHT22;37579;51.074;17.004;2024-02-26T05:48:19;24.90;84.80
39751;DHT22;37579;51.074;17.004;2024-02-26T05:50:45;24.90;84.60
39751;DHT22;37579;51.074;17.004;2024-02-26T05:53:11;24.90;84.60
39751;DHT22;37579;51.074;17.004;2024-02-26T05:55:37;25.00;84.50
39751;DHT22;37579;51.074;17.004;2024-02-26T05:58:03;25.00;84.50
39751;DHT22;37579;51.074;17.004;2024-02-26T06:00:29;25.00;84.40
39751;DHT22;37579;51.074;17.004;2024-02-26T06:02:55;25.00;84.30
39751;DHT22;37579;51.074;17.004;2024-02-26T06:05:21;25.00;84.20
39751;DHT22;37579;51.074;17.004;2024-02-26T06:07:47;25.00;84.30
39751;DHT22;37579;51.074;17.004;2024-02-26T06:10:13;25.00;84.30
39751;DHT22;37579;51.074;17.004;2024-02-26T06:12:41;25.00;84.30
39751;DHT22;37579;51.074;17.004;2024-02-26T06:15:07;25.00;84.30
39751;DHT22;37579;51.074;17.004;2024-02-26T06:17:34;24.90;84.00
39751;DHT22;37579;51.074;17.004;2024-02-26T06:20:00;25.00;84.10
39751;DHT22;37579;51.074;17.004;2024-02-26T06:22:26;25.00;83.90
39751;DHT22;37579;51.074;17.004;2024-02-26T06:24:52;25.00;83.80
39751;DHT22;37579;51.074;17.004;2024-02-26T06:27:18;25.00;83.70
39751;DHT22;37579;51.074;17.004;2024-02-26T06:29:44;25.00;83.70
39751;DHT22;37579;51.074;17.004;2024-02-26T06:32:09;25.00;83.90
39751;DHT22;37579;51.074;17.004;2024-02-26T06:34:35;25.00;83.70
39751;DHT22;37579;51.074;17.004;2024-02-26T06:37:01;25.00;83.70
39751;DHT22;37579;51.074;17.004;2024-02-26T06:39:29;25.00;83.70
39751;DHT22;37579;51.074;17.004;2024-02-26T06:41:55;25.00;83.80
39751;DHT22;37579;51.074;17.004;2024-02-26T06:44:26;25.00;83.70
39751;DHT22;37579;51.074;17.004;2024-02-26T06:47:00;25.00;83.70
39751;DHT22;37579;51.074;17.004;2024-02-26T06:49:27;25.00;83.60
39751;DHT22;37579;51.074;17.004;2024-02-26T06:51:53;25.00;84.30
39751;DHT22;37579;51.074;17.004;2024-02-26T06:54:19;25.00;83.60
39751;DHT22;37579;51.074;17.004;2024-02-26T06:56:45;25.00;83.30
39751;DHT22;37579;51.074;17.004;2024-02-26T06:59:10;25.00;83.50
39751;DHT22;37579;51.074;17.004;2024-02-26T07:01:36;25.00;83.60
39751;DHT22;37579;51.074;17.004;2024-02-26T07:04:02;25.00;83.60
39751;DHT22;37579;51.074;17.004;2024-02-26T07:06:28;25.00;83.60
39751;DHT22;37579;51.074;17.004;2024-02-26T07:08:54;25.00;83.70
39751;DHT22;37579;51.074;17.004;2024-02-26T07:11:19;25.00;83.70
39751;DHT22;37579;51.074;17.004;2024-02-26T07:13:46;24.90;83.70
39751;DHT22;37579;51.074;17.004;2024-02-26T07:16:12;25.00;83.80
39751;DHT22;37579;51.074;17.004;2024-02-26T07:18:39;25.00;83.80
39751;DHT22;37579;51.074;17.004;2024-02-26T07:21:05;25.00;83.80
39751;DHT22;37579;51.074;17.004;2024-02-26T07:23:31;25.00;83.80
39751;DHT22;37579;51.074;17.004;2024-02-26T07:25:57;25.00;83.80
39751;DHT22;37579;51.074;17.004;2024-02-26T07:28:24;25.00;84.10
39751;DHT22;37579;51.074;17.004;2024-02-26T07:30:50;24.90;84.10
39751;DHT22;37579;51.074;17.004;2024-02-26T07:33:15;25.00;84.30
39751;DHT22;37579;51.074;17.004;2024-02-26T07:35:41;25.00;84.30
39751;DHT22;37579;51.074;17.004;2024-02-26T07:38:07;25.00;84.30
39751;DHT22;37579;51.074;17.004;2024-02-26T07:40:33;25.00;84.30
39751;DHT22;37579;51.074;17.004;2024-02-26T07:42:59;24.90;84.40
39751;DHT22;37579;51.074;17.004;2024-02-26T07:45:24;25.00;84.50
39751;DHT22;37579;51.074;17.004;2024-02-26T07:47:50;25.00;84.40
39751;DHT22;37579;51.074;17.004;2024-02-26T07:50:17;25.00;84.50
39751;DHT22;37579;51.074;17.004;2024-02-26T07:52:44;25.00;84.60
39751;DHT22;37579;51.074;17.004;2024-02-26T07:55:10;25.00;84.60
39751;DHT22;37579;51.074;17.004;2024-02-26T07:57:36;25.10;84.60
39751;DHT22;37579;51.074;17.004;2024-02-26T08:00:05;25.10;84.50
39751;DHT22;37579;51.074;17.004;2024-02-26T08:02:35;25.10;84.60
39751;DHT22;37579;51.074;17.004;2024-02-26T08:05:01;25.10;84.80
39751;DHT22;37579;51.074;17.004;2024-02-26T08:07:27;25.20;84.80
39751;DHT22;37579;51.074;17.004;2024-02-26T08:09:54;25.20;84.80
39751;DHT22;37579;51.074;17.004;2024-02-26T08:12:19;25.20;84.80
39751;DHT22;37579;51.074;17.004;2024-02-26T08:14:46;25.20;85.00
39751;DHT22;37579;51.074;17.004;2024-02-26T08:17:11;25.20;84.90
39751;DHT22;37579;51.074;17.004;2024-02-26T08:19:37;25.20;85.20
39751;DHT22;37579;51.074;17.004;2024-02-26T08:22:03;25.20;85.10
39751;DHT22;37579;51.074;17.004;2024-02-26T08:24:29;25.20;85.20
39751;DHT22;37579;51.074;17.004;2024-02-26T08:26:55;25.20;85.40
39751;DHT22;37579;51.074;17.004;2024-02-26T08:29:20;25.20;85.20
39751;DHT22;37579;51.074;17.004;2024-02-26T08:31:46;25.30;85.10
39751;DHT22;37579;51.074;17.004;2024-02-26T08:34:12;25.30;85.20
39751;DHT22;37579;51.074;17.004;2024-02-26T08:36:38;25.40;85.30
39751;DHT22;37579;51.074;17.004;2024-02-26T08:39:03;25.40;85.40
39751;DHT22;37579;51.074;17.004;2024-02-26T08:41:29;25.30;85.60
39751;DHT22;37579;51.074;17.004;2024-02-26T08:43:55;25.30;85.70
39751;DHT22;37579;51.074;17.004;2024-02-26T08:46:21;25.30;85.80
39751;DHT22;37579;51.074;17.004;2024-02-26T08:48:47;25.30;86.00
39751;DHT22;37579;51.074;17.004;2024-02-26T08:51:12;25.30;86.10
39751;DHT22;37579;51.074;17.004;2024-02-26T08:53:39;25.30;86.20
39751;DHT22;37579;51.074;17.004;2024-02-26T08:56:05;25.30;86.20
39751;DHT22;37579;51.074;17.004;2024-02-26T08:58:31;25.30;86.20
39751;DHT22;37579;51.074;17.004;2024-02-26T09:00:57;25.30;86.00
39751;DHT22;37579;51.074;17.004;2024-02-26T09:03:23;25.30;86.00
39751;DHT22;37579;51.074;17.004;2024-02-26T09:05:49;25.30;86.10
39751;DHT22;37579;51.074;17.004;2024-02-26T09:08:15;25.30;86.20
39751;DHT22;37579;51.074;17.004;2024-02-26T09:10:41;25.40;86.20
39751;DHT22;37579;51.074;17.004;2024-02-26T09:13:07;25.40;86.00
39751;DHT22;37579;51.074;17.004;2024-02-26T09:15:33;25.30;86.20
39751;DHT22;37579;51.074;17.004;2024-02-26T09:17:59;25.30;86.10
39751;DHT22;37579;51.074;17.004;2024-02-26T09:20:25;25.20;85.70
39751;DHT22;37579;51.074;17.004;2024-02-26T09:22:51;25.10;85.10
39751;DHT22;37579;51.074;17.004;2024-02-26T09:25:17;25.20;84.40
39751;DHT22;37579;51.074;17.004;2024-02-26T09:27:43;25.20;83.90
39751;DHT22;37579;51.074;17.004;2024-02-26T09:30:13;25.20;83.30
39751;DHT22;37579;51.074;17.004;2024-02-26T09:32:39;25.20;82.90
39751;DHT22;37579;51.074;17.004;2024-02-26T09:35:08;25.10;82.40
39751;DHT22;37579;51.074;17.004;2024-02-26T09:37:34;25.10;82.50
39751;DHT22;37579;51.074;17.004;2024-02-26T09:40:03;25.00;82.20
39751;DHT22;37579;51.074;17.004;2024-02-26T09:42:31;25.00;82.40
39751;DHT22;37579;51.074;17.004;2024-02-26T09:45:00;24.90;52.70
39751;DHT22;37579;51.074;17.004;2024-02-26T09:47:31;24.90;53.50
39751;DHT22;37579;51.074;17.004;2024-02-26T09:49:59;25.10;53.00
39751;DHT22;37579;51.074;17.004;2024-02-26T09:52:28;25.20;52.90
39751;DHT22;37579;51.074;17.004;2024-02-26T09:54:54;25.30;51.90
39751;DHT22;37579;51.074;17.004;2024-02-26T09:57:20;25.30;52.00
39751;DHT22;37579;51.074;17.004;2024-02-26T09:59:51;25.30;51.90
39751;DHT22;37579;51.074;17.004;2024-02-26T10:02:20;25.20;51.50
39751;DHT22;37579;51.074;17.004;2024-02-26T10:04:47;25.10;51.00
39751;DHT22;37579;51.074;17.004;2024-02-26T10:07:15;25.10;51.20
39751;DHT22;37579;51.074;17.004;2024-02-26T10:09:41;25.00;50.70
39751;DHT22;37579;51.074;17.004;2024-02-26T10:12:10;25.00;50.90
39751;DHT22;37579;51.074;17.004;2024-02-26T10:14:36;25.00;51.00
39751;DHT22;37579;51.074;17.004;2024-02-26T10:17:02;25.00;50.90
39751;DHT22;37579;51.074;17.004;2024-02-26T10:19:29;24.90;51.10
39751;DHT22;37579;51.074;17.004;2024-02-26T10:21:59;24.90;51.00
39751;DHT22;37579;51.074;17.004;2024-02-26T10:24:27;24.90;50.90
39751;DHT22;37579;51.074;17.004;2024-02-26T10:26:54;24.90;50.70
39751;DHT22;37579;51.074;17.004;2024-02-26T10:29:21;24.90;50.60
39751;DHT22;37579;51.074;17.004;2024-02-26T10:31:47;24.80;50.30
39751;DHT22;37579;51.074;17.004;2024-02-26T10:34:14;24.80;50.20
39751;DHT22;37579;51.074;17.004;2024-02-26T10:36:40;24.80;50.40
39751;DHT22;37579;51.074;17.004;2024-02-26T10:39:12;24.70;50.70
39751;DHT22;37579;51.074;17.004;2024-02-26T10:41:43;24.70;50.70
39751;DHT22;37579;51.074;17.004;2024-02-26T10:44:09;24.80;50.80
39751;DHT22;37579;51.074;17.004;2024-02-26T10:46:37;24.80;50.90
39751;DHT22;37579;51.074;17.004;2024-02-26T10:49:03;24.80;51.00
39751;DHT22;37579;51.074;17.004;2024-02-26T10:51:30;24.80;51.20
39751;DHT22;37579;51.074;17.004;2024-02-26T10:53:59;24.80;51.20
39751;DHT22;37579;51.074;17.004;2024-02-26T10:56:29;24.80;51.40
39751;DHT22;37579;51.074;17.004;2024-02-26T10:58:55;24.80;51.60
39751;DHT22;37579;51.074;17.004;2024-02-26T11:01:22;24.90;51.70
39751;DHT22;37579;51.074;17.004;2024-02-26T11:03:53;24.80;51.80
39751;DHT22;37579;51.074;17.004;2024-02-26T11:06:20;24.80;51.80
39751;DHT22;37579;51.074;17.004;2024-02-26T11:08:53;24.80;51.90
39751;DHT22;37579;51.074;17.004;2024-02-26T11:11:20;24.80;51.80
39751;DHT22;37579;51.074;17.004;2024-02-26T11:13:47;24.80;51.90
39751;DHT22;37579;51.074;17.004;2024-02-26T11:16:21;24.80;51.90
39751;DHT22;37579;51.074;17.004;2024-02-26T11:18:48;24.80;51.80
39751;DHT22;37579;51.074;17.004;2024-02-26T11:21:15;24.70;51.70
39751;DHT22;37579;51.074;17.004;2024-02-26T11:23:42;24.70;51.90
39751;DHT22;37579;51.074;17.004;2024-02-26T11:26:10;24.70;51.90
39751;DHT22;37579;51.074;17.004;2024-02-26T11:28:37;24.70;51.90
39751;DHT22;37579;51.074;17.004;2024-02-26T11:31:03;24.60;51.90
39751;DHT22;37579;51.074;17.004;2024-02-26T11:33:30;24.60;52.10
39751;DHT22;37579;51.074;17.004;2024-02-26T11:35:56;24.60;52.10
39751;DHT22;37579;51.074;17.004;2024-02-26T11:38:25;24.70;51.70
39751;DHT22;37579;51.074;17.004;2024-02-26T11:40:53;24.70;51.30
39751;DHT22;37579;51.074;17.004;2024-02-26T11:43:23;24.70;51.50
39751;DHT22;37579;51.074;17.004;2024-02-26T11:46:25;24.70;51.50
39751;DHT22;37579;51.074;17.004;2024-02-26T11:48:55;24.60;51.50
39751;DHT22;37579;51.074;17.004;2024-02-26T11:51:26;24.60;51.50
39751;DHT22;37579;51.074;17.004;2024-02-26T11:53:52;24.60;51.20
39751;DHT22;37579;51.074;17.004;2024-02-26T11:58:48;24.70;50.00
39751;DHT22;37579;51.074;17.004;2024-02-26T12:06:57;24.70;49.80
39751;DHT22;37579;51.074;17.004;2024-02-26T12:09:39;24.60;49.80
39751;DHT22;37579;51.074;17.004;2024-02-26T12:12:10;24.70;49.70
39751;DHT22;37579;51.074;17.004;2024-02-26T12:14:40;24.70;49.80
39751;DHT22;37579;51.074;17.004;2024-02-26T12:17:19;24.70;49.80
39751;DHT22;37579;51.074;17.004;2024-02-26T12:19:45;24.70;49.80
39751;DHT22;37579;51.074;17.004;2024-02-26T12:22:13;24.70;49.70
39751;DHT22;37579;51.074;17.004;2024-02-26T12:24:39;24.70;49.50
39751;DHT22;37579;51.074;17.004;2024-02-26T12:27:05;24.70;49.60
39751;DHT22;37579;51.074;17.004;2024-02-26T12:29:32;24.70;49.70
39751;DHT22;37579;51.074;17.004;2024-02-26T12:31:57;24.70;49.60
39751;DHT22;37579;51.074;17.004;2024-02-26T12:34:23;24.70;49.40
39751;DHT22;37579;51.074;17.004;2024-02-26T12:36:49;24.70;49.40
39751;DHT22;37579;51.074;17.004;2024-02-26T12:39:16;24.70;49.30
39751;DHT22;37579;51.074;17.004;2024-02-26T12:41:41;23.90;40.00
39751;DHT22;37579;51.074;17.004;2024-02-26T12:44:18;23.40;38.60
39751;DHT22;37579;51.074;17.004;2024-02-26T12:46:44;22.90;38.40
39751;DHT22;37579;51.074;17.004;2024-02-26T12:49:15;22.80;39.00
39751;DHT22;37579;51.074;17.004;2024-02-26T12:51:44;22.90;39.90
39751;DHT22;37579;51.074;17.004;2024-02-26T12:54:10;23.50;43.20
39751;DHT22;37579;51.074;17.004;2024-02-26T12:56:36;23.80;43.30
39751;DHT22;37579;51.074;17.004;2024-02-26T12:59:02;24.00;43.50
39751;DHT22;37579;51.074;17.004;2024-02-26T13:01:29;24.20;43.70
39751;DHT22;37579;51.074;17.004;2024-02-26T13:03:56;24.20;43.90
39751;DHT22;37579;51.074;17.004;2024-02-26T13:06:22;24.20;44.30
39751;DHT22;37579;51.074;17.004;2024-02-26T13:08:48;24.30;44.40
39751;DHT22;37579;51.074;17.004;2024-02-26T13:11:15;24.30;44.80
39751;DHT22;37579;51.074;17.004;2024-02-26T13:13:41;24.40;45.10
39751;DHT22;37579;51.074;17.004;2024-02-26T13:16:09;24.40;45.20
39751;DHT22;37579;51.074;17.004;2024-02-26T13:18:35;24.40;45.40
39751;DHT22;37579;51.074;17.004;2024-02-26T13:21:15;24.40;45.60
39751;DHT22;37579;51.074;17.004;2024-02-26T13:23:42;24.40;45.80
39751;DHT22;37579;51.074;17.004;2024-02-26T13:26:08;24.40;46.00
39751;DHT22;37579;51.074;17.004;2024-02-26T13:28:37;24.40;46.20
39751;DHT22;37579;51.074;17.004;2024-02-26T13:31:03;24.40;46.30
39751;DHT22;37579;51.074;17.004;2024-02-26T13:33:31;24.40;46.50
39751;DHT22;37579;51.074;17.004;2024-02-26T13:35:58;24.40;46.70
39751;DHT22;37579;51.074;17.004;2024-02-26T13:38:25;24.40;46.80
39751;DHT22;37579;51.074;17.004;2024-02-26T13:40:51;24.40;46.90
39751;DHT22;37579;51.074;17.004;2024-02-26T13:43:18;24.40;47.00
39751;DHT22;37579;51.074;17.004;2024-02-26T13:45:45;24.50;47.20
39751;DHT22;37579;51.074;17.004;2024-02-26T13:48:11;24.50;47.20
39751;DHT22;37579;51.074;17.004;2024-02-26T13:50:38;24.50;47.30
39751;DHT22;37579;51.074;17.004;2024-02-26T13:53:04;24.50;47.40
39751;DHT22;37579;51.074;17.004;2024-02-26T13:55:31;24.60;47.50
39751;DHT22;37579;51.074;17.004;2024-02-26T13:57:58;24.60;47.50
39751;DHT22;37579;51.074;17.004;2024-02-26T14:00:29;24.60;47.60
39751;DHT22;37579;51.074;17.004;2024-02-26T14:02:59;24.60;47.60
39751;DHT22;37579;51.074;17.004;2024-02-26T14:05:25;24.60;47.60
39751;DHT22;37579;51.074;17.004;2024-02-26T14:07:52;24.60;47.60
39751;DHT22;37579;51.074;17.004;2024-02-26T14:10:18;24.60;47.70
39751;DHT22;37579;51.074;17.004;2024-02-26T14:12:44;24.60;47.90
39751;DHT22;37579;51.074;17.004;2024-02-26T14:15:10;24.60;48.10
39751;DHT22;37579;51.074;17.004;2024-02-26T14:17:36;24.60;47.90
39751;DHT22;37579;51.074;17.004;2024-02-26T14:20:02;24.60;48.00
39751;DHT22;37579;51.074;17.004;2024-02-26T14:22:28;24.60;48.10
39751;DHT22;37579;51.074;17.004;2024-02-26T14:24:56;24.60;48.10
39751;DHT22;37579;51.074;17.004;2024-02-26T14:27:22;24.60;48.30
39751;DHT22;37579;51.074;17.004;2024-02-26T14:29:49;24.60;48.30
39751;DHT22;37579;51.074;17.004;2024-02-26T14:32:15;24.60;48.30
39751;DHT22;37579;51.074;17.004;2024-02-26T14:34:41;24.60;48.30
39751;DHT22;37579;51.074;17.004;2024-02-26T14:37:06;24.60;48.40
39751;DHT22;37579;51.074;17.004;2024-02-26T14:39:33;24.60;48.40
39751;DHT22;37579;51.074;17.004;2024-02-26T14:41:59;24.60;48.60
39751;DHT22;37579;51.074;17.004;2024-02-26T14:44:25;24.60;48.50
39751;DHT22;37579;51.074;17.004;2024-02-26T14:46:51;24.60;48.50
39751;DHT22;37579;51.074;17.004;2024-02-26T14:49:17;24.60;48.60
39751;DHT22;37579;51.074;17.004;2024-02-26T14:51:43;24.60;48.60
39751;DHT22;37579;51.074;17.004;2024-02-26T14:54:12;24.60;48.70
39751;DHT22;37579;51.074;17.004;2024-02-26T14:56:38;24.60;48.80
39751;DHT22;37579;51.074;17.004;2024-02-26T14:59:05;24.60;48.80
39751;DHT22;37579;51.074;17.004;2024-02-26T15:01:32;24.60;48.90
39751;DHT22;37579;51.074;17.004;2024-02-26T15:03:58;24.60;48.90
39751;DHT22;37579;51.074;17.004;2024-02-26T15:06:24;24.60;49.00
39751;DHT22;37579;51.074;17.004;2024-02-26T15:08:51;24.50;49.00
39751;DHT22;37579;51.074;17.004;2024-02-26T15:11:16;24.50;49.00
39751;DHT22;37579;51.074;17.004;2024-02-26T15:13:42;24.60;49.10
39751;DHT22;37579;51.074;17.004;2024-02-26T15:16:08;24.60;49.20
39751;DHT22;37579;51.074;17.004;2024-02-26T15:18:36;24.60;49.20
39751;DHT22;37579;51.074;17.004;2024-02-26T15:21:02;24.50;49.20